Time;durP1;ratioP1;P1;durP2;ratioP2;P2;SDS_P1;SDS_P2;PMS_P1;PMS_P2;Temp;Humidity;BMP_temperature;BMP_pressure;BME280_temperature;BME280_humidity;BME280_pressure;Samples;Min_cycle;Max_cycle;Signal;HPM_P1;HPM_P2
2023/01/04 00:01:27;;;;;;;8.67;5.20;;;3.90;58.20;;;;;;5010571;28;20884;-52
2023/01/04 00:03:53;;;;;;;9.93;6.83;;;3.90;58.50;;;;;;5012746;28;20453;-52
2023/01/04 00:06:20;;;;;;;7.73;6.27;;;3.90;59.40;;;;;;5011524;28;21013;-52
2023/01/04 00:08:47;;;;;;;8.03;5.30;;;3.90;60.20;;;;;;5012767;28;20441;-52
2023/01/04 00:11:16;;;;;;;5.97;5.37;;;3.90;59.10;;;;;;5003872;28;20544;-52
2023/01/04 00:13:43;;;;;;;5.60;5.07;;;3.90;61.30;;;;;;5011777;28;20462;-53
2023/01/04 00:16:13;;;;;;;5.90;5.00;;;3.90;61.40;;;;;;5009165;28;20963;-52
2023/01/04 00:18:41;;;;;;;5.97;5.27;;;3.90;61.30;;;;;;5008029;28;20521;-53
2023/01/04 00:21:10;;;;;;;7.00;5.20;;;3.90;61.70;;;;;;5002949;28;20483;-53
2023/01/04 00:23:37;;;;;;;5.57;5.07;;;3.80;61.60;;;;;;5007340;28;20468;-52
2023/01/04 00:26:08;;;;;;;5.83;5.23;;;3.80;61.20;;;;;;5008888;28;20469;-52
2023/01/04 00:28:34;;;;;;;8.53;5.40;;;3.80;60.90;;;;;;5008389;28;20464;-52
2023/01/04 00:31:03;;;;;;;8.67;5.50;;;3.80;61.20;;;;;;4997204;28;20597;-52
2023/01/04 00:33:31;;;;;;;6.37;5.53;;;3.70;62.00;;;;;;5007201;28;20442;-52
2023/01/04 00:36:02;;;;;;;8.23;5.63;;;3.70;61.10;;;;;;5003241;28;20473;-52
2023/01/04 00:38:29;;;;;;;5.50;5.00;;;3.70;61.10;;;;;;5011561;28;20489;-52
2023/01/04 00:40:55;;;;;;;7.47;5.77;;;3.60;61.60;;;;;;5007045;28;21070;-52
2023/01/04 00:43:22;;;;;;;7.00;5.93;;;3.70;61.30;;;;;;5009786;28;20462;-52
2023/01/04 00:45:49;;;;;;;8.90;5.47;;;3.70;61.90;;;;;;5007632;28;20467;-52
2023/01/04 00:48:15;;;;;;;6.90;5.43;;;3.70;59.80;;;;;;5012171;28;20438;-52
2023/01/04 00:50:44;;;;;;;6.53;5.83;;;3.70;60.20;;;;;;5012093;28;20571;-52
2023/01/04 00:53:11;;;;;;;5.93;5.43;;;3.70;61.00;;;;;;5016709;28;20497;-52
2023/01/04 00:55:38;;;;;;;7.00;4.80;;;3.70;59.90;;;;;;4997346;28;20454;-52
2023/01/04 00:58:05;;;;;;;9.60;6.20;;;3.70;60.90;;;;;;5010299;28;20540;-52
2023/01/04 01:00:31;;;;;;;12.03;5.37;;;3.70;59.80;;;;;;5009451;28;20541;-52
2023/01/04 01:02:58;;;;;;;5.93;5.33;;;3.70;60.20;;;;;;5011195;28;21025;-52
2023/01/04 01:05:25;;;;;;;5.10;4.70;;;3.80;59.20;;;;;;5008076;28;20453;-52
2023/01/04 01:07:53;;;;;;;4.77;4.30;;;3.80;59.20;;;;;;5008086;28;20467;-52
2023/01/04 01:10:19;;;;;;;8.50;5.77;;;3.80;59.70;;;;;;5010469;28;20544;-52
2023/01/04 01:12:46;;;;;;;5.53;4.97;;;3.90;60.00;;;;;;5008725;28;20966;-52
2023/01/04 01:15:12;;;;;;;5.13;4.63;;;3.90;59.90;;;;;;4998210;28;20524;-52
2023/01/04 01:17:39;;;;;;;4.93;4.40;;;4.00;59.70;;;;;;5007939;28;20492;-52
2023/01/04 01:20:07;;;;;;;5.10;4.70;;;4.00;59.70;;;;;;5008401;28;20519;-52
2023/01/04 01:22:35;;;;;;;4.83;3.87;;;4.10;60.70;;;;;;5015748;28;20452;-52
2023/01/04 01:25:03;;;;;;;7.50;4.60;;;4.10;61.20;;;;;;5015539;28;20489;-52
2023/01/04 01:27:30;;;;;;;5.70;5.00;;;4.10;62.10;;;;;;5015341;28;20509;-52
2023/01/04 01:29:57;;;;;;;4.37;4.07;;;4.10;63.90;;;;;;5012572;28;20482;-52
2023/01/04 01:32:24;;;;;;;4.63;4.23;;;4.10;64.10;;;;;;5009942;28;20978;-52
2023/01/04 01:34:50;;;;;;;6.20;5.47;;;4.10;63.80;;;;;;5013199;28;20515;-52
2023/01/04 01:37:17;;;;;;;5.63;4.60;;;4.10;64.80;;;;;;5014859;28;20501;-52
2023/01/04 01:39:43;;;;;;;6.00;4.93;;;4.10;65.60;;;;;;5015905;28;20489;-52
2023/01/04 01:42:19;;;;;;;5.63;4.73;;;4.10;65.30;;;;;;5003387;28;20458;-52
2023/01/04 01:45:09;;;;;;;5.10;4.60;;;4.00;66.60;;;;;;5010298;28;20465;-52
2023/01/04 01:47:41;;;;;;;7.50;3.80;;;4.00;64.70;;;;;;5012754;28;20500;-52
2023/01/04 01:50:20;;;;;;;8.23;4.80;;;4.10;64.90;;;;;;5014563;28;20485;-52
2023/01/04 01:52:47;;;;;;;4.57;4.17;;;4.00;65.80;;;;;;5006420;28;20496;-52
2023/01/04 01:55:16;;;;;;;7.67;5.27;;;3.90;67.60;;;;;;5016684;28;20456;-52
2023/01/04 01:57:45;;;;;;;7.60;5.63;;;3.90;66.50;;;;;;5015291;28;20446;-52
2023/01/04 02:00:14;;;;;;;4.87;4.43;;;3.90;66.50;;;;;;5012333;28;20984;-52
2023/01/04 02:02:45;;;;;;;4.20;3.90;;;3.80;67.00;;;;;;5006506;28;20899;-52
2023/01/04 02:05:12;;;;;;;4.70;3.90;;;3.80;66.50;;;;;;5009008;28;20884;-53
2023/01/04 02:07:38;;;;;;;4.20;3.90;;;3.80;65.40;;;;;;5007324;28;20535;-52
2023/01/04 02:10:07;;;;;;;4.33;4.00;;;3.70;64.30;;;;;;5015316;28;20469;-52
2023/01/04 02:12:33;;;;;;;4.00;3.73;;;3.70;63.30;;;;;;5034505;22;20546;-52
2023/01/04 02:15:02;;;;;;;4.83;3.57;;;3.70;64.50;;;;;;5033699;28;20828;-52
2023/01/04 02:17:36;;;;;;;6.10;3.83;;;3.70;60.10;;;;;;5028346;28;20520;-52
2023/01/04 02:20:30;;;;;;;7.10;3.90;;;3.80;60.90;;;;;;5032679;28;20486;-51
2023/01/04 02:23:29;;;;;;;4.60;4.20;;;3.80;59.80;;;;;;5019197;28;21000;-51
2023/01/04 02:26:24;;;;;;;4.13;3.70;;;3.80;59.60;;;;;;5023148;28;20496;-52
2023/01/04 02:29:15;;;;;;;3.57;3.27;;;3.90;59.30;;;;;;5015651;28;20454;-51
2023/01/04 02:31:47;;;;;;;3.60;3.40;;;3.90;60.20;;;;;;5009612;28;20486;-51
2023/01/04 02:34:19;;;;;;;3.57;3.27;;;4.00;61.00;;;;;;5013531;28;20519;-52
2023/01/04 02:36:56;;;;;;;5.20;4.67;;;4.10;63.70;;;;;;5000717;28;20818;-51
2023/01/04 02:39:34;;;;;;;4.93;3.50;;;4.00;66.20;;;;;;5013605;28;20491;-52
2023/01/04 02:42:08;;;;;;;4.63;4.17;;;4.00;67.60;;;;;;5012397;28;20540;-52
2023/01/04 02:44:52;;;;;;;4.40;4.00;;;4.00;68.70;;;;;;5014849;28;20512;-52
2023/01/04 02:50:32;;;;;;;4.87;3.60;;;4.00;71.10;;;;;;5012187;28;20477;-52
2023/01/04 02:53:01;;;;;;;5.50;3.80;;;4.00;69.40;;;;;;5013605;28;20596;-52
2023/01/04 02:55:38;;;;;;;8.77;3.87;;;4.00;71.00;;;;;;5013867;28;20471;-52
2023/01/04 02:58:12;;;;;;;6.20;3.87;;;4.00;70.60;;;;;;5014149;28;20465;-52
2023/01/04 03:06:42;;;;;;;5.03;3.63;;;4.00;75.40;;;;;;5020164;28;20485;-52
2023/01/04 03:09:14;;;;;;;3.70;3.40;;;4.10;77.10;;;;;;5012147;28;20446;-52
2023/01/04 03:14:33;;;;;;;8.53;3.33;;;4.10;79.30;;;;;;5011400;28;20469;-52
2023/01/04 03:17:02;;;;;;;3.40;3.10;;;4.00;79.40;;;;;;5018489;28;20510;-52
2023/01/04 03:36:14;;;;;;;8.50;3.27;;;4.20;90.80;;;;;;5009785;28;20444;-52
2023/01/04 03:50:10;;;;;;;3.53;3.23;;;4.30;92.60;;;;;;5004962;28;20831;-52
2023/01/04 03:52:41;;;;;;;5.70;3.60;;;4.30;92.40;;;;;;5010086;28;20478;-52
2023/01/04 03:55:10;;;;;;;4.97;3.30;;;4.30;92.80;;;;;;5009877;28;20465;-52
2023/01/04 03:57:37;;;;;;;6.13;3.40;;;4.30;93.30;;;;;;5007037;28;20520;-52
2023/01/04 04:00:09;;;;;;;3.43;3.13;;;4.30;92.10;;;;;;5013241;28;20529;-52
2023/01/04 04:02:36;;;;;;;6.17;3.23;;;4.30;92.60;;;;;;5008640;28;20917;-52
2023/01/04 04:10:33;;;;;;;4.20;3.60;;;4.50;99.00;;;;;;5010347;28;20465;-52
2023/01/04 04:12:59;;;;;;;6.50;3.90;;;4.60;99.90;;;;;;5009541;28;21000;-52
2023/01/04 04:15:26;;;;;;;4.20;3.50;;;4.50;99.90;;;;;;5014518;28;20466;-52
2023/01/04 04:17:53;;;;;;;3.30;3.00;;;4.50;99.90;;;;;;5008153;28;20915;-52
2023/01/04 04:20:19;;;;;;;4.13;3.37;;;4.50;99.90;;;;;;5007654;28;20521;-52
2023/01/04 04:22:46;;;;;;;5.13;3.37;;;4.40;99.90;;;;;;5009678;28;20620;-52
2023/01/04 04:25:14;;;;;;;5.43;3.60;;;4.40;99.80;;;;;;5011283;28;20531;-52
2023/01/04 04:27:40;;;;;;;5.17;3.50;;;4.40;99.30;;;;;;5017860;28;20841;-52
2023/01/04 04:30:08;;;;;;;4.30;3.47;;;4.40;99.90;;;;;;5007778;28;20484;-52
2023/01/04 04:32:34;;;;;;;3.63;3.33;;;4.40;99.90;;;;;;5005692;28;20485;-53
2023/01/04 04:35:01;;;;;;;5.00;3.77;;;4.40;99.30;;;;;;5009506;28;20469;-52
2023/01/04 04:37:30;;;;;;;5.27;3.73;;;4.40;98.20;;;;;;5014875;28;20465;-52
2023/01/04 04:39:57;;;;;;;5.30;3.37;;;4.40;98.40;;;;;;5012518;28;21025;-52
2023/01/04 04:42:24;;;;;;;6.80;3.77;;;4.40;98.70;;;;;;5014072;28;20916;-52
2023/01/04 04:44:50;;;;;;;3.77;3.40;;;4.40;96.50;;;;;;5012671;28;20558;-52
2023/01/04 04:47:17;;;;;;;3.73;3.33;;;4.40;97.00;;;;;;5010583;28;20954;-52
2023/01/04 04:49:43;;;;;;;3.50;3.20;;;4.40;97.50;;;;;;5010085;28;20834;-52
2023/01/04 04:52:10;;;;;;;7.03;3.27;;;4.40;97.60;;;;;;5010940;28;20483;-52
2023/01/04 04:54:37;;;;;;;3.63;3.33;;;4.50;98.60;;;;;;5021520;28;20589;-52
2023/01/04 04:57:03;;;;;;;4.67;2.83;;;4.50;99.20;;;;;;5010158;28;20523;-52
2023/01/04 04:59:32;;;;;;;6.00;4.97;;;4.50;97.40;;;;;;5010781;28;21060;-52
2023/01/04 05:01:58;;;;;;;8.07;5.67;;;4.50;99.90;;;;;;5008210;28;20905;-52
2023/01/04 05:04:25;;;;;;;4.60;3.70;;;4.60;99.90;;;;;;5006722;28;20528;-52
2023/01/04 05:06:52;;;;;;;6.50;4.30;;;4.60;99.90;;;;;;5011325;28;20462;-52
2023/01/04 05:09:19;;;;;;;5.57;3.63;;;4.60;99.90;;;;;;5020831;28;20437;-52
2023/01/04 05:14:31;;;;;;;3.53;3.27;;;4.70;99.90;;;;;;5028726;28;20475;-53
2023/01/04 05:16:58;;;;;;;7.33;3.77;;;4.80;99.90;;;;;;5007438;28;20473;-53
2023/01/04 05:19:25;;;;;;;3.63;3.33;;;4.80;99.90;;;;;;5007245;28;20481;-52
2023/01/04 05:21:51;;;;;;;4.90;3.40;;;4.80;99.90;;;;;;5007352;28;20493;-53
2023/01/04 05:24:18;;;;;;;5.37;2.93;;;4.90;99.90;;;;;;5009091;28;20454;-52
2023/01/04 05:26:44;;;;;;;5.17;3.63;;;4.90;99.90;;;;;;5010188;28;20464;-52
2023/01/04 05:30:49;;;;;;;3.30;3.00;;;4.90;99.90;;;;;;5010028;28;20490;-52
2023/01/04 05:31:58;;;;;;;5.90;3.33;;;5.00;99.90;;;;;;5004689;28;20595;-54
2023/01/04 05:34:24;;;;;;;4.73;3.00;;;5.00;99.90;;;;;;5006753;28;20512;-52
2023/01/04 05:36:51;;;;;;;3.20;3.00;;;5.00;99.90;;;;;;5004091;28;20552;-52
2023/01/04 05:39:17;;;;;;;4.17;3.20;;;5.00;99.90;;;;;;5009888;28;20853;-52
2023/01/04 05:44:28;;;;;;;6.80;3.23;;;5.10;99.90;;;;;;5010700;28;20782;-52
2023/01/04 05:46:55;;;;;;;4.20;3.00;;;5.10;99.90;;;;;;5002107;28;20466;-52
2023/01/04 05:49:23;;;;;;;4.37;3.00;;;5.20;99.90;;;;;;5001324;28;20811;-52
2023/01/04 05:51:49;;;;;;;5.37;2.70;;;5.20;99.90;;;;;;5000459;28;20521;-52
2023/01/04 05:54:16;;;;;;;3.73;3.10;;;5.30;99.90;;;;;;5010125;28;20465;-52
2023/01/04 05:56:43;;;;;;;5.47;3.10;;;5.30;99.90;;;;;;4995283;28;20497;-52
2023/01/04 05:59:09;;;;;;;4.60;2.27;;;5.30;99.90;;;;;;5007166;28;20466;-52
2023/01/04 06:01:36;;;;;;;3.73;2.60;;;5.30;99.90;;;;;;5004293;28;20476;-52
2023/01/04 06:04:02;;;;;;;2.40;2.20;;;5.30;99.90;;;;;;5010660;28;20524;-52
2023/01/04 06:06:30;;;;;;;3.20;2.77;;;5.40;99.90;;;;;;5014132;28;20614;-52
2023/01/04 06:08:57;;;;;;;3.17;2.97;;;5.40;99.90;;;;;;5008765;28;20893;-51
2023/01/04 06:11:23;;;;;;;5.73;3.20;;;5.40;99.90;;;;;;5009262;28;20485;-53
2023/01/04 06:13:50;;;;;;;3.03;2.83;;;5.40;99.90;;;;;;5010889;28;20516;-52
2023/01/04 06:16:16;;;;;;;3.50;3.20;;;5.40;99.90;;;;;;5011646;28;20462;-52
2023/01/04 06:18:43;;;;;;;4.40;2.80;;;5.40;99.90;;;;;;5009389;28;20465;-53
2023/01/04 06:21:10;;;;;;;5.60;2.93;;;5.30;99.90;;;;;;5009200;28;20521;-53
2023/01/04 06:23:38;;;;;;;6.60;3.10;;;5.40;99.90;;;;;;5008162;28;20495;-52
2023/01/04 06:26:04;;;;;;;3.73;3.47;;;5.40;99.90;;;;;;5013085;28;20470;-52
2023/01/04 06:28:31;;;;;;;5.63;3.67;;;5.30;99.90;;;;;;5007288;28;20986;-52
2023/01/04 06:30:58;;;;;;;5.27;2.70;;;5.30;99.90;;;;;;5011463;28;20486;-53
2023/01/04 06:33:24;;;;;;;3.10;2.50;;;5.30;99.90;;;;;;5007859;28;20900;-53
2023/01/04 06:35:54;;;;;;;2.30;2.10;;;5.40;99.90;;;;;;5011346;28;21106;-53
2023/01/04 06:38:21;;;;;;;4.53;4.03;;;5.30;99.90;;;;;;5011006;28;20523;-52
2023/01/04 06:40:49;;;;;;;2.97;2.57;;;5.40;99.90;;;;;;5013079;28;20490;-52
2023/01/04 06:43:16;;;;;;;3.83;3.00;;;5.40;99.90;;;;;;5012054;28;20469;-53
2023/01/04 06:45:43;;;;;;;5.13;2.70;;;5.40;99.90;;;;;;5019051;28;20531;-53
2023/01/04 06:48:10;;;;;;;2.80;2.60;;;5.40;99.90;;;;;;5013196;28;20497;-53
2023/01/04 06:50:36;;;;;;;2.97;2.77;;;5.50;99.90;;;;;;5012162;28;20457;-53
2023/01/04 06:53:03;;;;;;;3.50;2.60;;;5.60;99.90;;;;;;5011026;28;20466;-52
2023/01/04 06:55:30;;;;;;;3.53;2.60;;;5.60;99.90;;;;;;5009136;28;20494;-52
2023/01/04 06:57:58;;;;;;;5.20;2.40;;;5.70;99.90;;;;;;5004232;28;20461;-52
2023/01/04 07:00:25;;;;;;;4.90;2.17;;;5.70;99.90;;;;;;5011936;28;21033;-52
2023/01/04 07:02:51;;;;;;;2.50;2.40;;;5.70;99.90;;;;;;5009811;28;21006;-52
2023/01/04 07:05:18;;;;;;;2.50;2.23;;;5.70;99.90;;;;;;5020541;28;20458;-52
2023/01/04 07:07:45;;;;;;;3.30;2.20;;;5.70;99.90;;;;;;5009499;28;20873;-52
2023/01/04 07:10:11;;;;;;;2.53;2.20;;;5.60;99.90;;;;;;5012357;28;20449;-54
2023/01/04 07:12:38;;;;;;;2.87;2.60;;;5.60;99.90;;;;;;5011653;28;20608;-52
2023/01/04 07:15:07;;;;;;;3.20;2.40;;;5.60;99.90;;;;;;5019711;28;20486;-52
2023/01/04 07:17:34;;;;;;;3.43;2.30;;;5.60;99.90;;;;;;5010664;28;20470;-52
2023/01/04 07:20:02;;;;;;;3.10;2.43;;;5.60;99.90;;;;;;5013344;28;20566;-52
2023/01/04 07:22:29;;;;;;;4.20;2.30;;;5.60;99.90;;;;;;5007548;28;20600;-52
2023/01/04 07:24:56;;;;;;;8.43;2.60;;;5.50;85.80;;;;;;5010439;28;20881;-52
2023/01/04 07:27:22;;;;;;;4.43;2.40;;;5.40;79.00;;;;;;5007857;28;20495;-52
2023/01/04 07:29:49;;;;;;;4.83;2.50;;;5.40;72.60;;;;;;5008295;28;20562;-52
2023/01/04 07:32:17;;;;;;;2.63;2.43;;;5.30;72.60;;;;;;5014254;28;20494;-52
2023/01/04 07:34:43;;;;;;;2.10;1.90;;;5.30;61.60;;;;;;5009349;28;20469;-52
2023/01/04 07:37:11;;;;;;;4.50;2.37;;;5.30;58.80;;;;;;5005693;28;20469;-52
2023/01/04 07:39:38;;;;;;;3.00;2.30;;;5.30;56.30;;;;;;5006831;28;20470;-52
2023/01/04 07:42:05;;;;;;;2.43;2.23;;;5.20;52.70;;;;;;5009794;28;20485;-52
2023/01/04 07:44:32;;;;;;;2.50;1.97;;;5.20;46.10;;;;;;5012620;28;20447;-52
2023/01/04 07:46:58;;;;;;;7.37;2.30;;;5.20;44.90;;;;;;5006097;28;20516;-52
2023/01/04 07:49:26;;;;;;;4.37;2.60;;;5.20;44.20;;;;;;5011733;28;20496;-52
2023/01/04 07:51:53;;;;;;;4.27;2.20;;;5.20;43.60;;;;;;5007457;28;20897;-52
2023/01/04 07:54:20;;;;;;;3.43;2.23;;;5.20;41.30;;;;;;5009197;28;20461;-52
2023/01/04 07:56:47;;;;;;;2.70;2.17;;;5.20;40.80;;;;;;5003934;28;21306;-52
2023/01/04 07:59:16;;;;;;;4.40;1.87;;;5.20;40.10;;;;;;5003708;28;20544;-52
2023/01/04 08:01:43;;;;;;;2.23;1.83;;;5.20;39.90;;;;;;5000921;28;20571;-52
2023/01/04 08:04:12;;;;;;;7.50;2.53;;;5.30;39.50;;;;;;5002418;28;20476;-52
2023/01/04 08:06:41;;;;;;;2.60;2.20;;;5.30;39.20;;;;;;5005200;28;20516;-52
2023/01/04 08:09:08;;;;;;;3.80;1.97;;;5.30;39.00;;;;;;5005627;28;20470;-52
2023/01/04 08:14:12;;;;;;;1.90;1.70;;;5.30;38.80;;;;;;5038550;28;20487;-51
2023/01/04 08:16:40;;;;;;;1.73;1.50;;;5.40;39.30;;;;;;5040973;28;20494;-51
2023/01/04 08:19:11;;;;;;;9.10;1.83;;;5.40;38.20;;;;;;5043035;28;20562;-49
2023/01/04 08:21:39;;;;;;;2.63;1.70;;;5.50;40.50;;;;;;5043133;28;20534;-50
2023/01/04 08:24:07;;;;;;;3.17;2.00;;;5.50;42.30;;;;;;5042090;28;20488;-50
2023/01/04 08:26:33;;;;;;;2.63;1.83;;;5.50;42.20;;;;;;5050373;28;20459;-51
2023/01/04 08:29:00;;;;;;;9.33;1.77;;;5.50;42.20;;;;;;5047567;28;20534;-51
2023/01/04 08:31:29;;;;;;;4.43;1.60;;;5.60;41.80;;;;;;5040164;28;20975;-50
2023/01/04 08:33:56;;;;;;;3.07;1.60;;;5.60;42.30;;;;;;5044227;28;21144;-51
2023/01/04 08:36:25;;;;;;;2.40;1.97;;;5.60;42.50;;;;;;5048332;28;20518;-50
2023/01/04 08:38:55;;;;;;;4.47;1.80;;;5.70;42.20;;;;;;5048327;28;20458;-51
2023/01/04 08:41:21;;;;;;;4.03;2.10;;;5.70;42.10;;;;;;5042121;28;20582;-50
2023/01/04 08:43:48;;;;;;;7.67;2.07;;;5.70;41.10;;;;;;5037449;28;21238;-51
2023/01/04 08:46:15;;;;;;;1.50;1.40;;;5.80;42.20;;;;;;5040124;28;20487;-51
2023/01/04 08:48:42;;;;;;;1.63;1.53;;;5.80;42.40;;;;;;5041520;28;20542;-54
2023/01/04 08:51:11;;;;;;;3.97;1.90;;;5.80;42.60;;;;;;5045518;28;20456;-51
2023/01/04 08:53:38;;;;;;;1.50;1.40;;;5.80;44.00;;;;;;5046535;28;20476;-51
2023/01/04 08:56:07;;;;;;;2.20;1.70;;;5.80;44.10;;;;;;5045491;28;20882;-51
2023/01/04 08:58:35;;;;;;;4.30;2.27;;;5.90;43.20;;;;;;5039797;28;20458;-50
2023/01/04 09:01:03;;;;;;;3.73;2.90;;;5.90;42.10;;;;;;5043125;28;20502;-51
2023/01/04 09:03:30;;;;;;;3.80;2.30;;;5.90;44.50;;;;;;5047208;28;20834;-51
2023/01/04 09:06:02;;;;;;;1.90;1.80;;;5.90;44.90;;;;;;5041932;28;20496;-51
2023/01/04 09:08:30;;;;;;;8.70;2.10;;;5.90;46.10;;;;;;5042212;28;20464;-51
2023/01/04 09:10:57;;;;;;;2.40;2.17;;;6.00;46.70;;;;;;5045839;28;21207;-51
2023/01/04 09:13:25;;;;;;;4.83;2.10;;;6.00;45.40;;;;;;5049986;28;20545;-51
2023/01/04 09:15:52;;;;;;;2.27;2.07;;;6.00;45.40;;;;;;5045428;28;20965;-51
2023/01/04 09:18:19;;;;;;;4.23;2.17;;;6.00;45.10;;;;;;5042210;28;20458;-51
2023/01/04 09:20:45;;;;;;;3.17;2.37;;;6.00;44.90;;;;;;5046924;28;21072;-51
2023/01/04 09:23:12;;;;;;;4.93;3.23;;;6.10;45.10;;;;;;5039348;28;20577;-51
2023/01/04 09:25:39;;;;;;;2.33;2.10;;;6.10;45.70;;;;;;5044580;28;20459;-51
2023/01/04 09:28:06;;;;;;;2.30;2.10;;;6.10;46.80;;;;;;5046161;28;20467;-51
2023/01/04 09:30:34;;;;;;;5.37;2.07;;;6.10;46.30;;;;;;5042510;28;20498;-50
2023/01/04 09:33:00;;;;;;;3.07;2.80;;;6.20;45.40;;;;;;5049921;28;20490;-51
2023/01/04 09:35:27;;;;;;;6.77;2.80;;;6.10;44.90;;;;;;5045074;28;20498;-51
2023/01/04 09:37:54;;;;;;;4.73;2.03;;;6.20;45.90;;;;;;5050533;28;20843;-50
2023/01/04 09:40:28;;;;;;;3.60;2.63;;;6.20;47.30;;;;;;5044822;28;20468;-51
2023/01/04 09:42:55;;;;;;;4.17;2.60;;;6.20;45.70;;;;;;5043241;28;21000;-51
2023/01/04 09:45:25;;;;;;;5.53;2.53;;;6.30;46.20;;;;;;5046585;28;20467;-51
2023/01/04 09:47:58;;;;;;;2.77;2.57;;;6.30;45.70;;;;;;5048695;28;20566;-51
2023/01/04 09:50:28;;;;;;;4.47;2.10;;;6.30;45.70;;;;;;5053001;28;20468;-51
2023/01/04 09:53:05;;;;;;;2.23;2.10;;;6.30;45.80;;;;;;5048239;28;20502;-51
2023/01/04 09:55:36;;;;;;;3.00;2.10;;;6.30;46.10;;;;;;5043345;28;20990;-51
2023/01/04 09:58:11;;;;;;;4.30;2.70;;;6.30;47.50;;;;;;5042673;28;20491;-51
2023/01/04 10:00:43;;;;;;;3.87;2.43;;;6.30;48.20;;;;;;5042014;28;20518;-52
2023/01/04 10:03:17;;;;;;;2.20;2.00;;;6.30;49.40;;;;;;5043353;28;20479;-51
2023/01/04 10:05:43;;;;;;;3.70;2.37;;;6.30;49.60;;;;;;5044031;28;20460;-51
2023/01/04 10:08:16;;;;;;;6.60;2.43;;;6.30;50.00;;;;;;5049553;28;20513;-50
2023/01/04 10:10:50;;;;;;;2.50;2.00;;;6.30;50.40;;;;;;5050642;28;20979;-50
2023/01/04 10:13:28;;;;;;;6.17;2.43;;;6.40;52.20;;;;;;5042861;28;20582;-50
2023/01/04 10:16:05;;;;;;;2.23;2.07;;;6.40;51.80;;;;;;4952697;28;79523;-51
2023/01/04 10:18:42;;;;;;;2.53;2.33;;;6.40;51.40;;;;;;4925807;28;51456;-53
2023/01/04 10:21:27;;;;;;;3.57;2.20;;;6.50;51.00;;;;;;4974608;28;51873;-51
2023/01/04 10:24:06;;;;;;;4.53;2.60;;;6.50;51.30;;;;;;4982794;28;20514;-51
2023/01/04 10:26:39;;;;;;;2.17;1.97;;;6.50;51.20;;;;;;4986845;28;20590;-51
2023/01/04 10:29:26;;;;;;;2.63;2.13;;;6.50;50.20;;;;;;4982366;28;20496;-51
2023/01/04 10:31:56;;;;;;;3.13;1.93;;;6.50;50.70;;;;;;4985905;28;20457;-51
2023/01/04 10:34:28;;;;;;;2.63;2.37;;;6.60;50.20;;;;;;4983046;28;20554;-52
2023/01/04 10:36:58;;;;;;;2.23;2.00;;;6.60;48.70;;;;;;4976061;28;20558;-52
2023/01/04 10:39:30;;;;;;;2.40;2.20;;;6.60;47.50;;;;;;4985766;28;20497;-51
2023/01/04 10:41:59;;;;;;;3.00;2.70;;;6.60;44.60;;;;;;4991633;28;20984;-51
2023/01/04 10:44:37;;;;;;;4.53;2.10;;;6.60;45.30;;;;;;4983593;28;20475;-51
2023/01/04 10:47:08;;;;;;;4.33;2.30;;;6.60;44.90;;;;;;4982512;28;20553;-51
2023/01/04 10:49:42;;;;;;;2.40;2.30;;;6.60;45.60;;;;;;4982251;28;20543;-51
2023/01/04 10:52:14;;;;;;;3.17;2.87;;;6.60;46.80;;;;;;4971627;28;20481;-50
2023/01/04 10:54:45;;;;;;;3.13;2.17;;;6.60;47.20;;;;;;4988010;28;20832;-51
2023/01/04 10:57:16;;;;;;;2.40;2.27;;;6.70;47.60;;;;;;4990842;28;20463;-51
2023/01/04 10:59:46;;;;;;;4.30;3.10;;;6.70;47.80;;;;;;4988786;28;20806;-53
2023/01/04 11:02:21;;;;;;;2.80;2.60;;;6.70;47.20;;;;;;4989617;28;20490;-51
2023/01/04 11:04:56;;;;;;;3.60;2.40;;;6.70;47.40;;;;;;4984347;28;20458;-53
2023/01/04 11:07:28;;;;;;;2.03;1.93;;;6.70;46.30;;;;;;4978219;28;20461;-52
2023/01/04 11:09:59;;;;;;;2.60;2.40;;;6.70;47.10;;;;;;4986262;28;20465;-51
2023/01/04 11:12:26;;;;;;;2.90;2.60;;;6.70;47.30;;;;;;4981763;28;20511;-52
2023/01/04 11:14:53;;;;;;;5.23;2.60;;;6.70;47.20;;;;;;4989064;28;20912;-51
2023/01/04 11:17:21;;;;;;;3.20;2.90;;;6.80;47.90;;;;;;4988069;28;20471;-52
2023/01/04 11:19:48;;;;;;;10.17;3.27;;;6.80;47.20;;;;;;4988365;28;20499;-51
2023/01/04 11:22:20;;;;;;;5.60;2.97;;;6.70;47.30;;;;;;4981058;28;20577;-52
2023/01/04 11:24:51;;;;;;;5.30;2.77;;;6.80;46.30;;;;;;4987103;28;20548;-51
2023/01/04 11:27:24;;;;;;;8.23;2.67;;;6.80;44.50;;;;;;4990530;28;20840;-51
2023/01/04 11:29:56;;;;;;;3.10;2.60;;;6.80;44.50;;;;;;4996469;28;20541;-57
2023/01/04 11:32:34;;;;;;;5.63;2.63;;;6.80;44.80;;;;;;5003670;28;20481;-52
2023/01/04 11:35:01;;;;;;;5.17;2.87;;;6.90;45.00;;;;;;4993035;28;20503;-52
2023/01/04 11:37:32;;;;;;;2.10;2.00;;;6.90;45.40;;;;;;4987392;28;20467;-52
2023/01/04 11:40:22;;;;;;;2.77;2.60;;;6.80;45.50;;;;;;4995826;28;20518;-52
2023/01/04 11:42:51;;;;;;;7.07;3.13;;;6.90;45.70;;;;;;4992887;28;20505;-51
2023/01/04 11:45:22;;;;;;;3.10;2.90;;;6.90;46.60;;;;;;4984254;28;20451;-51
2023/01/04 11:47:51;;;;;;;1.90;1.80;;;6.90;46.80;;;;;;4982335;28;20985;-51
2023/01/04 11:50:35;;;;;;;3.07;2.87;;;6.90;46.90;;;;;;4977374;28;20526;-52
2023/01/04 11:53:23;;;;;;;2.43;1.90;;;6.90;46.50;;;;;;4989169;28;20903;-52
2023/01/04 11:55:50;;;;;;;2.83;2.63;;;7.00;46.80;;;;;;4988446;28;20839;-52
2023/01/04 11:58:18;;;;;;;4.03;2.30;;;7.00;46.00;;;;;;4992144;28;20473;-52
2023/01/04 12:00:51;;;;;;;2.80;2.57;;;7.00;46.40;;;;;;4986273;28;20470;-52
2023/01/04 12:03:24;;;;;;;4.40;2.77;;;7.00;46.90;;;;;;4985253;28;20482;-52
2023/01/04 12:05:50;;;;;;;4.40;3.10;;;7.00;46.80;;;;;;4984554;28;20541;-51
2023/01/04 12:08:28;;;;;;;2.17;2.07;;;7.10;47.70;;;;;;4986722;28;20471;-52
2023/01/04 12:10:54;;;;;;;3.47;2.73;;;7.10;47.80;;;;;;4985939;28;20470;-52
2023/01/04 12:13:21;;;;;;;2.70;2.53;;;7.10;48.10;;;;;;4991105;28;20486;-52
2023/01/04 12:15:57;;;;;;;2.50;2.30;;;7.10;49.30;;;;;;4991244;28;20462;-51
2023/01/04 12:18:28;;;;;;;2.20;2.10;;;7.10;49.20;;;;;;4990018;28;20813;-52
2023/01/04 12:20:56;;;;;;;19.93;6.20;;;7.10;49.90;;;;;;4988696;28;21067;-52
2023/01/04 12:23:24;;;;;;;3.47;2.60;;;7.20;50.70;;;;;;4987098;28;20494;-52
2023/01/04 12:25:52;;;;;;;5.10;2.80;;;7.10;52.00;;;;;;4991074;28;20472;-51
2023/01/04 12:28:33;;;;;;;4.10;2.50;;;7.20;52.30;;;;;;4987589;28;20471;-51
2023/01/04 12:31:32;;;;;;;2.37;2.17;;;7.20;53.30;;;;;;4981816;28;20468;-51
2023/01/04 12:34:15;;;;;;;9.33;2.40;;;7.20;54.10;;;;;;4977070;28;22803;-51
2023/01/04 12:36:56;;;;;;;4.67;2.17;;;7.30;54.10;;;;;;4979601;28;20907;-52
2023/01/04 12:39:37;;;;;;;2.60;2.40;;;7.30;54.70;;;;;;4973572;28;20523;-52
2023/01/04 12:42:25;;;;;;;2.40;2.20;;;7.30;54.50;;;;;;4980152;28;20561;-51
2023/01/04 12:45:18;;;;;;;4.20;2.57;;;7.40;54.90;;;;;;4980064;28;20463;-51
2023/01/04 12:51:20;;;;;;;2.97;2.30;;;7.40;54.30;;;;;;4983341;28;20462;-52
2023/01/04 12:53:51;;;;;;;2.43;2.17;;;7.40;54.20;;;;;;4990192;28;20494;-51
2023/01/04 12:56:19;;;;;;;2.50;1.93;;;7.40;53.70;;;;;;4984088;28;20540;-51
2023/01/04 12:59:09;;;;;;;9.33;2.67;;;7.40;54.90;;;;;;4983203;28;20487;-51
2023/01/04 13:01:36;;;;;;;2.43;2.00;;;7.40;54.20;;;;;;4982466;28;20496;-51
2023/01/04 13:04:23;;;;;;;2.03;1.80;;;7.50;54.30;;;;;;4986057;28;20511;-51
2023/01/04 13:06:50;;;;;;;2.80;2.60;;;7.50;53.80;;;;;;4983283;28;20898;-51
2023/01/04 13:09:21;;;;;;;2.20;2.10;;;7.50;52.30;;;;;;4982199;28;20565;-51
2023/01/04 13:12:15;;;;;;;2.70;2.50;;;7.50;51.10;;;;;;4981003;28;20462;-52
2023/01/04 13:14:46;;;;;;;3.37;2.07;;;7.50;51.40;;;;;;4981570;28;20467;-51
2023/01/04 13:17:17;;;;;;;2.80;2.30;;;7.50;52.20;;;;;;4985392;28;20502;-52
2023/01/04 13:19:44;;;;;;;2.47;2.30;;;7.60;51.90;;;;;;4988306;28;20809;-51
2023/01/04 13:22:18;;;;;;;2.90;2.70;;;7.60;51.00;;;;;;4983698;28;20494;-51
2023/01/04 13:24:47;;;;;;;2.50;2.13;;;7.60;51.50;;;;;;4984143;28;20485;-51
2023/01/04 13:27:18;;;;;;;2.97;2.77;;;7.60;51.10;;;;;;4979926;28;20494;-51
2023/01/04 13:29:45;;;;;;;7.80;2.40;;;7.60;50.80;;;;;;4977288;28;20561;-51
2023/01/04 13:32:16;;;;;;;2.90;2.37;;;7.60;51.00;;;;;;4977566;28;25787;-50
2023/01/04 13:34:50;;;;;;;6.10;2.80;;;7.60;50.90;;;;;;4979624;28;21022;-50
2023/01/04 13:37:26;;;;;;;3.77;2.80;;;7.70;50.00;;;;;;4982146;28;20472;-51
2023/01/04 13:40:02;;;;;;;3.10;2.87;;;7.70;48.80;;;;;;4989796;28;20469;-50
2023/01/04 13:42:34;;;;;;;2.40;2.30;;;7.70;48.40;;;;;;4983962;28;20525;-52
2023/01/04 13:45:21;;;;;;;2.20;2.10;;;7.70;47.70;;;;;;4982294;28;20501;-52
2023/01/04 13:47:51;;;;;;;2.80;2.53;;;7.70;48.30;;;;;;4981218;28;20471;-52
2023/01/04 13:50:27;;;;;;;2.90;2.60;;;7.70;48.00;;;;;;4987227;28;20817;-51
2023/01/04 13:52:54;;;;;;;7.40;2.77;;;7.70;48.00;;;;;;4988488;28;20489;-51
2023/01/04 13:55:23;;;;;;;4.50;2.40;;;7.80;47.50;;;;;;4981238;28;20523;-51
2023/01/04 13:57:55;;;;;;;5.13;2.13;;;7.80;48.10;;;;;;4990629;28;20535;-51
2023/01/04 14:00:22;;;;;;;3.00;2.73;;;7.80;47.00;;;;;;4984605;28;20467;-51
2023/01/04 14:03:12;;;;;;;2.93;2.73;;;7.80;46.90;;;;;;4989019;28;20494;-52
2023/01/04 14:05:46;;;;;;;2.83;2.60;;;7.80;46.20;;;;;;4982687;28;20475;-51
2023/01/04 14:08:18;;;;;;;2.90;2.63;;;7.80;45.70;;;;;;4976803;28;20471;-51
2023/01/04 14:10:45;;;;;;;4.50;2.20;;;7.90;45.30;;;;;;4989403;28;20466;-52